createdAt,value
2023-04-11T00:00:14.064Z,1.30
2023-04-11T00:02:41.850Z,0.93
2023-04-11T00:05:09.188Z,0.80
2023-04-11T00:07:36.716Z,1.17
2023-04-11T00:10:05.039Z,0.70
2023-04-11T00:12:32.561Z,1.00
2023-04-11T00:15:00.105Z,0.80
2023-04-11T00:17:27.673Z,1.13
2023-04-11T00:19:55.212Z,1.27
2023-04-11T00:22:22.748Z,0.90
2023-04-11T00:24:50.358Z,0.90
2023-04-11T00:27:19.109Z,0.80
2023-04-11T00:29:45.426Z,0.80
2023-04-11T00:32:13.270Z,1.30
2023-04-11T00:34:40.813Z,1.40
2023-04-11T00:37:08.347Z,0.87
2023-04-11T00:39:35.913Z,0.50
2023-04-11T00:42:06.169Z,0.70
2023-04-11T00:44:33.695Z,0.60
2023-04-11T00:47:01.321Z,0.67
2023-04-11T00:49:28.823Z,0.70
2023-04-11T00:51:56.356Z,0.83
2023-04-11T00:54:23.909Z,0.90
2023-04-11T00:56:51.481Z,0.80
2023-04-11T00:59:18.978Z,0.70
2023-04-11T01:01:46.624Z,0.70
2023-04-11T01:04:14.171Z,1.10
2023-04-11T01:06:41.650Z,0.80
2023-04-11T01:09:09.216Z,0.70
2023-04-11T01:11:36.755Z,0.60
2023-04-11T01:14:04.267Z,0.63
2023-04-11T01:16:31.912Z,0.80
2023-04-11T01:18:59.351Z,0.85
2023-04-11T01:21:26.892Z,0.60
2023-04-11T01:23:54.725Z,0.43
2023-04-11T01:26:22.249Z,0.70
2023-04-11T01:28:49.778Z,0.67
2023-04-11T01:31:17.416Z,0.50
2023-04-11T01:33:44.876Z,0.70
2023-04-11T01:36:12.485Z,0.67
2023-04-11T01:38:39.959Z,0.60
2023-04-11T01:41:07.503Z,0.90
2023-04-11T01:43:35.049Z,1.10
2023-04-11T01:46:02.654Z,0.70
2023-04-11T01:48:30.292Z,0.93
2023-04-11T01:50:57.739Z,0.90
2023-04-11T01:53:25.357Z,0.83
2023-04-11T01:55:52.875Z,1.10
2023-04-11T01:58:20.401Z,0.90
2023-04-11T02:00:48.032Z,1.03
2023-04-11T02:03:15.730Z,1.00
2023-04-11T02:05:43.103Z,1.40
2023-04-11T02:08:10.712Z,1.48
2023-04-11T02:10:38.257Z,1.30
2023-04-11T02:13:05.760Z,1.50
2023-04-11T02:15:33.353Z,1.50
2023-04-11T02:18:00.927Z,1.40
2023-04-11T02:20:28.395Z,1.10
2023-04-11T02:22:55.970Z,1.20
2023-04-11T02:25:23.497Z,1.00
2023-04-11T02:27:51.022Z,1.33
2023-04-11T02:30:18.650Z,1.60
2023-04-11T02:32:46.249Z,1.40
2023-04-11T02:35:13.737Z,1.50
2023-04-11T02:37:41.288Z,1.53
2023-04-11T02:40:08.871Z,1.80
2023-04-11T02:42:36.417Z,1.98
2023-04-11T02:45:04.016Z,1.60
2023-04-11T02:47:31.559Z,1.53
2023-04-11T02:49:59.032Z,1.10
2023-04-11T02:52:26.609Z,1.83
2023-04-11T02:54:54.163Z,1.70
2023-04-11T02:57:21.720Z,1.67
2023-04-11T02:59:49.257Z,1.20
2023-04-11T03:02:16.885Z,1.47
2023-04-11T03:04:44.323Z,1.23
2023-04-11T03:07:11.871Z,1.23
2023-04-11T03:09:39.405Z,1.37
2023-04-11T03:12:06.968Z,1.30
2023-04-11T03:14:34.506Z,1.00
2023-04-11T03:17:02.068Z,1.87
2023-04-11T03:19:29.602Z,1.50
2023-04-11T03:21:57.209Z,1.57
2023-04-11T03:24:24.756Z,1.13
2023-04-11T03:26:52.271Z,1.30
2023-04-11T03:29:19.815Z,1.87
2023-04-11T03:31:47.371Z,2.22
2023-04-11T03:34:14.885Z,1.57
2023-04-11T03:36:42.508Z,1.60
2023-04-11T03:39:10.065Z,1.57
2023-04-11T03:41:37.579Z,1.53
2023-04-11T03:44:05.152Z,1.80
2023-04-11T03:46:32.734Z,1.60
2023-04-11T03:49:00.220Z,1.20
2023-04-11T03:51:27.756Z,1.63
2023-04-11T03:53:55.312Z,1.60
2023-04-11T03:56:22.854Z,1.67
2023-04-11T03:58:50.388Z,2.13
2023-04-11T04:01:17.939Z,1.30
2023-04-11T04:03:45.797Z,1.43
2023-04-11T04:06:13.745Z,1.97
2023-04-11T04:08:41.281Z,1.90
2023-04-11T04:11:08.822Z,1.77
2023-04-11T04:13:36.394Z,1.43
2023-04-11T04:16:04.139Z,1.47
2023-04-11T04:18:31.464Z,1.73
2023-04-11T04:20:59.059Z,2.20
2023-04-11T04:23:26.587Z,1.50
2023-04-11T04:25:54.118Z,1.90
2023-04-11T04:28:21.685Z,1.70
2023-04-11T04:30:49.208Z,1.57
2023-04-11T04:33:16.752Z,1.87
2023-04-11T04:35:44.394Z,1.23
2023-04-11T04:38:11.887Z,1.77
2023-04-11T04:40:39.425Z,1.90
2023-04-11T04:43:07.029Z,2.17
2023-04-11T04:45:34.566Z,1.63
2023-04-11T04:48:02.126Z,1.60
2023-04-11T04:50:29.652Z,1.53
2023-04-11T04:52:57.177Z,1.90
2023-04-11T04:55:24.714Z,1.47
2023-04-11T04:57:52.289Z,2.03
2023-04-11T05:00:21.831Z,2.10
2023-04-11T05:02:47.483Z,1.90
2023-04-11T05:05:14.942Z,2.95
2023-04-11T05:07:42.481Z,2.13
2023-04-11T05:10:10.010Z,2.75
2023-04-11T05:12:37.585Z,2.60
2023-04-11T05:15:05.118Z,2.10
2023-04-11T05:17:32.685Z,2.30
2023-04-11T05:20:00.507Z,1.60
2023-04-11T05:22:28.097Z,2.00
2023-04-11T05:24:55.551Z,1.43
2023-04-11T05:27:23.225Z,2.50
2023-04-11T05:29:50.749Z,1.67
2023-04-11T05:32:18.266Z,1.70
2023-04-11T05:34:58.189Z,1.73
2023-04-11T05:37:22.442Z,1.40
2023-04-11T05:39:49.978Z,2.10
2023-04-11T05:42:17.553Z,1.83
2023-04-11T05:44:45.078Z,1.77
2023-04-11T05:47:12.622Z,2.57
2023-04-11T05:49:40.190Z,1.83
2023-04-11T05:52:07.713Z,1.60
2023-04-11T05:54:35.236Z,1.50
2023-04-11T05:57:02.829Z,1.60
2023-04-11T05:59:30.403Z,2.53
2023-04-11T06:01:57.927Z,2.33
2023-04-11T06:04:25.640Z,2.47
2023-04-11T06:06:53.021Z,2.23
2023-04-11T06:09:20.627Z,2.07
2023-04-11T06:11:48.114Z,2.07
2023-04-11T06:14:15.633Z,1.70
2023-04-11T06:16:43.164Z,2.03
2023-04-11T06:19:10.736Z,2.03
2023-04-11T06:21:38.261Z,2.00
2023-04-11T06:24:05.798Z,1.77
2023-04-11T06:26:33.383Z,2.03
2023-04-11T06:29:00.938Z,1.43
2023-04-11T06:31:28.494Z,1.80
2023-04-11T06:33:56.402Z,2.17
2023-04-11T06:36:23.787Z,2.40
2023-04-11T06:38:51.322Z,2.80
2023-04-11T06:41:18.890Z,1.70
2023-04-11T06:43:46.411Z,2.17
2023-04-11T06:46:13.976Z,2.00
2023-04-11T06:48:41.535Z,2.67
2023-04-11T06:51:09.088Z,1.90
2023-04-11T06:53:36.603Z,2.70
2023-04-11T06:56:04.167Z,2.10
2023-04-11T06:58:31.741Z,2.03
2023-04-11T07:00:59.280Z,2.20
2023-04-11T07:03:26.944Z,2.50
2023-04-11T07:05:54.425Z,1.97
2023-04-11T07:08:21.972Z,1.27
2023-04-11T07:10:49.488Z,2.00
2023-04-11T07:13:17.083Z,1.47
2023-04-11T07:15:44.654Z,1.60
2023-04-11T07:18:12.189Z,1.50
2023-04-11T07:20:39.719Z,0.97
2023-04-11T07:23:07.496Z,1.30
2023-04-11T07:25:35.257Z,1.97
2023-04-11T07:28:03.395Z,1.30
2023-04-11T07:30:35.639Z,1.33
2023-04-11T07:33:04.004Z,1.87
2023-04-11T07:35:34.552Z,1.40
2023-04-11T07:38:02.481Z,1.60
2023-04-11T07:40:30.242Z,1.63
2023-04-11T07:43:00.670Z,1.50
2023-04-11T07:45:28.454Z,2.10
2023-04-11T07:47:57.492Z,1.60
2023-04-11T07:50:24.077Z,1.47
2023-04-11T07:52:51.934Z,2.10
2023-04-11T07:55:22.686Z,1.90
2023-04-11T07:57:53.307Z,2.20
2023-04-11T08:00:24.136Z,2.35
2023-04-11T08:02:56.956Z,1.50
2023-04-11T08:05:22.782Z,1.63
2023-04-11T08:07:50.603Z,2.07
2023-04-11T08:10:18.366Z,1.53
2023-04-11T08:12:46.323Z,2.03
2023-04-11T08:15:14.095Z,1.47
2023-04-11T08:17:44.212Z,1.73
2023-04-11T08:20:12.217Z,1.83
2023-04-11T08:22:40.051Z,1.87
2023-04-11T08:25:07.914Z,1.30
2023-04-11T08:27:40.347Z,1.40
2023-04-11T08:30:09.073Z,1.23
2023-04-11T08:32:36.865Z,1.27
2023-04-11T08:35:04.705Z,1.30
2023-04-11T08:37:32.578Z,1.70
2023-04-11T08:40:00.379Z,1.90
2023-04-11T08:42:28.233Z,1.53
2023-04-11T08:44:56.201Z,1.83
2023-04-11T08:47:26.652Z,1.70
2023-04-11T08:49:54.503Z,1.47
2023-04-11T08:52:22.296Z,2.17
2023-04-11T08:54:50.036Z,2.13
2023-04-11T08:57:26.500Z,2.30
2023-04-11T08:59:56.929Z,1.50
2023-04-11T09:02:24.772Z,1.60
2023-04-11T09:04:55.400Z,1.23
2023-04-11T09:07:25.664Z,1.20
2023-04-11T09:09:53.426Z,1.03
2023-04-11T09:12:21.379Z,1.43
2023-04-11T09:14:51.304Z,1.73
2023-04-11T09:17:22.031Z,1.67
2023-04-11T09:19:52.723Z,1.50
2023-04-11T09:22:23.052Z,1.73
2023-04-11T09:24:53.678Z,1.30
2023-04-11T09:27:24.204Z,0.90
2023-04-11T09:29:51.968Z,1.10
2023-04-11T09:32:37.285Z,0.80
2023-04-11T09:35:19.748Z,1.50
2023-04-11T09:37:50.594Z,1.13
2023-04-11T09:40:21.008Z,1.20
2023-04-11T09:42:48.773Z,1.27
2023-04-11T09:45:19.712Z,0.70
2023-04-11T09:47:50.264Z,1.30
2023-04-11T09:50:18.124Z,1.03
2023-04-11T09:52:46.119Z,1.13
2023-04-11T09:55:13.836Z,1.20
2023-04-11T09:57:41.569Z,1.17
2023-04-11T10:00:12.304Z,0.90
2023-04-11T10:02:40.306Z,1.20
2023-04-11T10:05:08.212Z,1.07
2023-04-11T10:07:38.363Z,1.37
2023-04-11T10:10:08.892Z,1.30
2023-04-11T10:12:38.493Z,1.23
2023-04-11T10:15:09.526Z,0.93
2023-04-11T10:17:37.392Z,1.00
2023-04-11T10:20:32.688Z,1.00
2023-04-11T10:23:00.513Z,0.83
2023-04-11T10:25:30.182Z,0.87
2023-04-11T10:27:58.064Z,1.20
2023-04-11T10:30:37.604Z,1.13
2023-04-11T10:33:14.792Z,0.97
2023-04-11T10:36:05.625Z,0.87
2023-04-11T10:38:45.483Z,1.27
2023-04-11T10:41:27.717Z,1.27
2023-04-11T10:44:16.016Z,1.17
2023-04-11T10:46:53.001Z,1.25
2023-04-11T10:49:41.550Z,1.48
2023-04-11T10:52:24.281Z,1.10
2023-04-11T10:54:52.204Z,0.90
2023-04-11T10:57:19.917Z,1.23
2023-04-11T10:59:50.620Z,0.87
2023-04-11T11:02:18.856Z,1.10
2023-04-11T11:04:53.967Z,1.17
2023-04-11T11:07:26.409Z,1.27
2023-04-11T11:09:54.159Z,1.13
2023-04-11T11:12:21.944Z,1.13
2023-04-11T11:14:52.456Z,1.17
2023-04-11T11:17:20.268Z,1.10
2023-04-11T11:19:48.241Z,1.37
2023-04-11T11:22:18.625Z,0.90
2023-04-11T11:24:46.497Z,1.20
2023-04-11T11:27:20.142Z,0.97
2023-04-11T11:29:47.964Z,0.80
2023-04-11T11:32:30.242Z,0.90
2023-04-11T11:35:00.388Z,1.23
2023-04-11T11:37:28.143Z,1.10
2023-04-11T11:39:56.020Z,1.40
2023-04-11T11:42:28.078Z,1.33
2023-04-11T11:44:54.733Z,2.03
2023-04-11T11:47:22.627Z,1.50
2023-04-11T11:49:55.878Z,1.30
2023-04-11T11:52:36.023Z,1.10
2023-04-11T11:55:08.909Z,1.00
2023-04-11T11:57:34.733Z,1.40
2023-04-11T12:00:02.506Z,1.00
2023-04-11T12:02:30.563Z,0.90
2023-04-11T12:05:00.913Z,1.33
2023-04-11T12:07:33.076Z,1.23
2023-04-11T12:10:02.018Z,1.00
2023-04-11T12:12:35.526Z,1.03
2023-04-11T12:15:12.020Z,1.00
2023-04-11T12:17:39.510Z,1.08
2023-04-11T12:20:09.855Z,1.00
2023-04-11T12:22:37.434Z,0.73
2023-04-11T12:25:04.967Z,0.80
2023-04-11T12:27:32.513Z,1.62
2023-04-11T12:30:00.220Z,1.10
2023-04-11T12:32:27.782Z,1.20
2023-04-11T12:34:55.295Z,1.13
2023-04-11T12:37:23.143Z,1.67
2023-04-11T12:39:50.680Z,0.90
2023-04-11T12:42:21.015Z,1.10
2023-04-11T12:44:45.795Z,1.00
2023-04-11T12:47:13.336Z,1.20
2023-04-11T12:49:40.876Z,0.90
2023-04-11T12:52:08.466Z,1.10
2023-04-11T12:54:35.988Z,1.87
2023-04-11T12:57:03.543Z,1.50
2023-04-11T12:59:32.423Z,1.20
2023-04-11T13:01:58.732Z,1.17
2023-04-11T13:04:26.412Z,1.10
2023-04-11T13:06:53.798Z,1.33
2023-04-11T13:09:21.334Z,1.40
2023-04-11T13:11:48.855Z,1.27
2023-04-11T13:14:16.438Z,1.03
2023-04-11T13:16:44.040Z,1.33
2023-04-11T13:19:11.521Z,1.13
2023-04-11T13:21:39.107Z,1.07
2023-04-11T13:24:06.629Z,0.90
2023-04-11T13:26:37.069Z,0.80
2023-04-11T13:29:04.653Z,0.97
2023-04-11T13:31:32.206Z,0.97
2023-04-11T13:33:59.710Z,0.73
2023-04-11T13:36:27.355Z,0.90
2023-04-11T13:38:54.996Z,0.70
2023-04-11T13:41:22.364Z,0.80
2023-04-11T13:43:49.990Z,0.90
2023-04-11T13:46:17.576Z,0.90
2023-04-11T13:48:45.036Z,1.08
2023-04-11T13:51:12.723Z,0.70
2023-04-11T13:53:40.269Z,0.90
2023-04-11T13:56:07.796Z,1.00
2023-04-11T13:58:35.410Z,1.10
2023-04-11T14:01:02.953Z,0.77
2023-04-11T14:03:30.514Z,1.33
2023-04-11T14:05:58.023Z,1.03
2023-04-11T14:08:25.565Z,0.80
2023-04-11T14:10:53.081Z,1.17
2023-04-11T14:13:20.675Z,1.20
2023-04-11T14:15:52.077Z,1.47
2023-04-11T14:18:15.726Z,1.03
2023-04-11T14:20:43.288Z,0.90
2023-04-11T14:23:10.812Z,1.40
2023-04-11T14:25:38.394Z,1.45
2023-04-11T14:28:05.967Z,1.17
2023-04-11T14:30:33.659Z,1.50
2023-04-11T14:33:01.087Z,1.90
2023-04-11T14:35:28.602Z,1.20
2023-04-11T14:37:56.151Z,1.60
2023-04-11T14:40:23.658Z,1.70
2023-04-11T14:42:51.207Z,1.00
2023-04-11T14:45:18.745Z,1.00
2023-04-11T14:47:46.297Z,1.10
2023-04-11T14:50:13.841Z,1.40
2023-04-11T14:52:41.371Z,1.25
2023-04-11T14:55:08.980Z,1.10
2023-04-11T14:57:42.170Z,1.07
2023-04-11T15:00:09.815Z,1.57
2023-04-11T15:02:37.441Z,1.20
2023-04-11T15:05:04.959Z,1.30
2023-04-11T15:07:32.476Z,0.90
2023-04-11T15:10:00.009Z,1.00
2023-04-11T15:12:27.590Z,1.30
2023-04-11T15:14:55.187Z,0.80
2023-04-11T15:17:22.755Z,1.17
2023-04-11T15:19:50.278Z,1.30
2023-04-11T15:22:17.802Z,1.00
2023-04-11T15:24:45.340Z,0.80
2023-04-11T15:27:12.933Z,0.77
2023-04-11T15:29:40.468Z,1.20
2023-04-11T15:32:08.001Z,1.00
2023-04-11T15:34:35.566Z,1.10
2023-04-11T15:37:03.089Z,1.00
2023-04-11T15:39:30.624Z,0.80
2023-04-11T15:41:58.240Z,1.10
2023-04-11T15:44:25.781Z,1.00
2023-04-11T15:46:53.351Z,0.90
2023-04-11T15:49:20.907Z,1.25
2023-04-11T15:51:48.421Z,1.10
2023-04-11T15:54:15.952Z,1.13
2023-04-11T15:56:43.790Z,1.50
2023-04-11T15:59:11.327Z,0.90
2023-04-11T16:01:38.926Z,1.40
2023-04-11T16:04:06.475Z,1.20
2023-04-11T16:06:33.972Z,1.00
2023-04-11T16:09:01.497Z,1.00
2023-04-11T16:11:29.108Z,0.80
2023-04-11T16:13:56.783Z,1.57
2023-04-11T16:16:24.206Z,1.23
2023-04-11T16:18:51.754Z,1.90
2023-04-11T16:21:19.287Z,1.50
2023-04-11T16:23:46.823Z,1.20
2023-04-11T16:26:14.387Z,1.13
2023-04-11T16:28:41.913Z,1.58
2023-04-11T16:31:09.449Z,1.57
2023-04-11T16:33:37.072Z,1.20
2023-04-11T16:36:04.645Z,1.67
2023-04-11T16:38:32.140Z,1.73
2023-04-11T16:41:02.544Z,1.67
2023-04-11T16:43:30.077Z,1.80
2023-04-11T16:45:57.608Z,1.60
2023-04-11T16:48:25.161Z,2.20
2023-04-11T16:50:52.699Z,1.47
2023-04-11T16:53:20.208Z,1.07
2023-04-11T16:55:47.851Z,1.50
2023-04-11T16:58:15.364Z,1.50
2023-04-11T17:00:42.900Z,1.30
2023-04-11T17:03:10.659Z,1.00
2023-04-11T17:05:38.034Z,1.57
2023-04-11T17:08:05.539Z,1.30
2023-04-11T17:10:33.122Z,1.97
2023-04-11T17:13:00.636Z,1.50
2023-04-11T17:15:28.171Z,1.50
2023-04-11T17:17:55.766Z,1.30
2023-04-11T17:20:23.304Z,1.13
2023-04-11T17:22:50.814Z,1.30
2023-04-11T17:25:18.371Z,1.30
2023-04-11T17:27:45.907Z,1.27
2023-04-11T17:30:13.462Z,1.87
2023-04-11T17:32:41.102Z,1.60
2023-04-11T17:35:08.635Z,1.70
2023-04-11T17:37:36.185Z,1.40
2023-04-11T17:40:03.718Z,1.33
2023-04-11T17:42:31.249Z,1.67
2023-04-11T17:45:03.755Z,1.48
2023-04-11T17:47:26.404Z,1.27
2023-04-11T17:49:53.908Z,1.77
2023-04-11T17:52:21.430Z,1.83
2023-04-11T17:54:48.974Z,1.20
2023-04-11T17:57:18.165Z,1.53
2023-04-11T17:59:44.065Z,1.50
2023-04-11T18:02:11.703Z,1.63
2023-04-11T18:04:39.296Z,1.60
2023-04-11T18:07:06.730Z,1.40
2023-04-11T18:09:34.338Z,1.50
2023-04-11T18:12:01.882Z,1.50
2023-04-11T18:14:29.410Z,1.23
2023-04-11T18:16:56.981Z,0.97
2023-04-11T18:19:24.521Z,1.40
2023-04-11T18:21:52.057Z,1.20
2023-04-11T18:24:19.630Z,1.30
2023-04-11T18:26:47.177Z,1.23
2023-04-11T18:29:14.722Z,1.33
2023-04-11T18:31:42.296Z,2.00
2023-04-11T18:34:10.034Z,2.17
2023-04-11T18:36:37.339Z,1.63
2023-04-11T18:39:04.911Z,1.97
2023-04-11T18:41:32.435Z,1.10
2023-04-11T18:44:01.287Z,2.03
2023-04-11T18:46:27.548Z,2.13
2023-04-11T18:48:55.035Z,1.70
2023-04-11T18:51:22.571Z,1.77
2023-04-11T18:53:50.150Z,1.57
2023-04-11T18:56:17.668Z,1.50
2023-04-11T18:58:46.740Z,1.40
2023-04-11T19:01:16.153Z,1.80
2023-04-11T19:03:40.983Z,1.50
2023-04-11T19:06:07.861Z,0.77
2023-04-11T19:08:35.450Z,2.03
2023-04-11T19:11:02.998Z,1.40
2023-04-11T19:13:30.533Z,1.60
2023-04-11T19:15:58.122Z,1.13
2023-04-11T19:18:25.619Z,1.33
2023-04-11T19:20:53.171Z,1.47
2023-04-11T19:23:20.776Z,1.50
2023-04-11T19:25:48.342Z,1.43
2023-04-11T19:28:15.844Z,1.47
2023-04-11T19:30:43.418Z,1.40
2023-04-11T19:33:10.983Z,1.50
2023-04-11T19:35:38.526Z,1.47
2023-04-11T19:38:06.096Z,1.87
2023-04-11T19:40:33.620Z,1.50
2023-04-11T19:43:01.164Z,1.30
2023-04-11T19:45:29.943Z,1.60
2023-04-11T19:47:56.270Z,1.75
2023-04-11T19:50:23.795Z,1.47
2023-04-11T19:52:51.352Z,3.50
2023-04-11T19:55:18.887Z,3.57
2023-04-11T19:57:46.430Z,2.30
2023-04-11T20:00:14.508Z,2.33
2023-04-11T20:02:41.690Z,2.40
2023-04-11T20:05:09.152Z,2.33
2023-04-11T20:07:36.730Z,2.23
2023-04-11T20:10:04.266Z,2.00
2023-04-11T20:12:31.790Z,2.10
2023-04-11T20:14:59.362Z,1.40
2023-04-11T20:17:26.939Z,1.90
2023-04-11T20:19:54.429Z,2.40
2023-04-11T20:22:21.985Z,2.03
2023-04-11T20:24:49.529Z,1.93
2023-04-11T20:27:17.045Z,2.20
2023-04-11T20:29:44.650Z,3.50
2023-04-11T20:32:12.183Z,3.27
2023-04-11T20:34:39.715Z,2.00
2023-04-11T20:37:07.333Z,2.87
2023-04-11T20:39:34.867Z,2.77
2023-04-11T20:42:02.400Z,2.40
2023-04-11T20:44:29.986Z,1.97
2023-04-11T20:46:57.512Z,1.70
2023-04-11T20:49:28.057Z,1.63
2023-04-11T20:51:55.669Z,2.10
2023-04-11T20:54:23.205Z,1.57
2023-04-11T20:56:50.728Z,1.70
2023-04-11T20:59:18.312Z,1.43
2023-04-11T21:01:46.006Z,2.07
2023-04-11T21:04:13.526Z,1.30
2023-04-11T21:06:40.963Z,1.50
2023-04-11T21:09:08.501Z,1.40
2023-04-11T21:11:36.043Z,1.30
2023-04-11T21:14:03.739Z,1.52
2023-04-11T21:16:31.261Z,1.23
2023-04-11T21:18:58.798Z,1.50
2023-04-11T21:21:26.379Z,1.37
2023-04-11T21:23:53.924Z,1.50
2023-04-11T21:26:21.453Z,1.63
2023-04-11T21:28:48.988Z,1.23
2023-04-11T21:31:16.546Z,1.77
2023-04-11T21:33:44.076Z,1.50
2023-04-11T21:36:11.706Z,1.40
2023-04-11T21:38:39.213Z,1.67
2023-04-11T21:41:06.740Z,1.50
2023-04-11T21:43:34.286Z,1.40
2023-04-11T21:46:01.831Z,1.50
2023-04-11T21:48:29.351Z,1.62
2023-04-11T21:50:56.900Z,1.37
2023-04-11T21:53:24.460Z,1.33
2023-04-11T21:55:51.978Z,1.20
2023-04-11T21:58:29.044Z,1.37
2023-04-11T22:00:47.046Z,1.77
2023-04-11T22:03:14.712Z,1.90
2023-04-11T22:05:42.196Z,1.55
2023-04-11T22:08:09.709Z,2.00
2023-04-11T22:10:46.586Z,1.00
2023-04-11T22:13:04.778Z,1.57
2023-04-11T22:15:32.305Z,1.60
2023-04-11T22:17:59.837Z,2.00
2023-04-11T22:20:27.383Z,2.22
2023-04-11T22:22:54.939Z,2.17
2023-04-11T22:25:22.767Z,1.50
2023-04-11T22:27:50.007Z,2.60
2023-04-11T22:30:17.557Z,2.70
2023-04-11T22:32:45.144Z,2.10
2023-04-11T22:35:12.721Z,2.20
2023-04-11T22:37:40.248Z,2.43
2023-04-11T22:40:08.005Z,1.27
2023-04-11T22:42:35.580Z,1.47
2023-04-11T22:45:03.109Z,1.53
2023-04-11T22:47:30.672Z,1.50
2023-04-11T22:49:58.214Z,1.47
2023-04-11T22:52:25.758Z,1.80
2023-04-11T22:54:53.275Z,1.80
2023-04-11T22:57:20.841Z,1.60
2023-04-11T22:59:48.377Z,1.30
2023-04-11T23:02:15.983Z,1.53
2023-04-11T23:04:43.543Z,1.30
2023-04-11T23:07:11.041Z,1.60
2023-04-11T23:09:38.567Z,1.50
2023-04-11T23:12:06.189Z,2.10
2023-04-11T23:14:33.728Z,1.03
2023-04-11T23:17:01.329Z,1.60
2023-04-11T23:19:28.810Z,1.57
2023-04-11T23:21:56.355Z,2.17
2023-04-11T23:24:23.881Z,1.47
2023-04-11T23:26:51.442Z,1.23
2023-04-11T23:29:18.969Z,1.10
2023-04-11T23:31:46.526Z,1.67
2023-04-11T23:34:14.097Z,1.35
2023-04-11T23:36:41.644Z,1.10
2023-04-11T23:39:09.156Z,1.17
2023-04-11T23:41:36.778Z,2.00
2023-04-11T23:44:04.331Z,1.13
2023-04-11T23:46:31.870Z,2.10
2023-04-11T23:48:59.462Z,3.00
2023-04-11T23:51:27.030Z,1.40
2023-04-11T23:53:54.563Z,1.70
2023-04-11T23:56:22.857Z,1.30
2023-04-11T23:58:50.384Z,1.83
